createdAt,value
2018-09-26T00:00:01.284Z,100853.16
2018-09-26T00:00:47.424Z,100853.66
2018-09-26T00:01:34.696Z,100862.53
2018-09-26T00:02:22.315Z,100858.44
2018-09-26T00:03:06.446Z,100857.35
2018-09-26T00:03:49.448Z,100863.23
2018-09-26T00:04:32.367Z,100850.52
2018-09-26T00:05:12.608Z,100855.61
2018-09-26T00:05:51.811Z,100858.25
2018-09-26T00:06:31.202Z,100856.06
2018-09-26T00:07:10.689Z,100864.13
2018-09-26T00:07:49.484Z,100866.26
2018-09-26T00:08:33.053Z,100864.59
2018-09-26T00:09:16.621Z,100866.71
2018-09-26T00:09:55.845Z,100859.16
2018-09-26T00:10:36.280Z,100864.17
2018-09-26T00:11:22.878Z,100870.92
2018-09-26T00:12:01.988Z,100873.59
2018-09-26T00:12:40.621Z,100865.20
2018-09-26T00:13:20.632Z,100871.09
2018-09-26T00:14:00.625Z,100867.55
2018-09-26T00:14:39.196Z,100872.62
2018-09-26T00:15:18.207Z,100872.30
2018-09-26T00:16:02.100Z,100868.51
2018-09-26T00:16:46.515Z,100873.62
2018-09-26T00:17:32.529Z,100864.16
2018-09-26T00:18:23.482Z,100875.41
2018-09-26T00:19:02.470Z,100877.53
2018-09-26T00:19:41.370Z,100871.80
2018-09-26T00:20:20.051Z,100872.83
2018-09-26T00:20:59.929Z,100876.33
2018-09-26T00:21:40.864Z,100875.74
2018-09-26T00:22:20.420Z,100883.27
2018-09-26T00:22:58.996Z,100881.07
2018-09-26T00:23:39.348Z,100879.69
2018-09-26T00:24:18.163Z,100881.28
2018-09-26T00:25:00.070Z,100880.95
2018-09-26T00:25:43.825Z,100877.70
2018-09-26T00:26:22.484Z,100880.06
2018-09-26T00:27:06.340Z,100882.44
2018-09-26T00:27:45.009Z,100889.41
2018-09-26T00:28:24.843Z,100893.17
2018-09-26T00:29:07.031Z,100886.41
2018-09-26T00:29:48.401Z,100899.30
2018-09-26T00:30:27.792Z,100900.64
2018-09-26T00:31:07.748Z,100898.45
2018-09-26T00:31:47.658Z,100904.63
2018-09-26T00:32:27.319Z,100906.73
2018-09-26T00:33:07.767Z,100906.40
2018-09-26T00:33:54.235Z,100910.12
2018-09-26T00:34:33.928Z,100904.67
2018-09-26T00:35:12.574Z,100908.14
2018-09-26T00:35:51.191Z,100911.08
2018-09-26T00:36:29.445Z,100910.52
2018-09-26T00:37:07.694Z,100912.34
2018-09-26T00:37:45.621Z,100914.45
2018-09-26T00:38:23.714Z,100911.95
2018-09-26T00:39:02.022Z,100911.11
2018-09-26T00:39:40.006Z,100921.87
2018-09-26T00:40:18.183Z,100917.47
2018-09-26T00:40:56.228Z,100920.94
2018-09-26T00:41:34.142Z,100917.34
2018-09-26T00:42:12.071Z,100927.77
2018-09-26T00:42:50.046Z,100925.86
2018-09-26T00:43:28.166Z,100926.56
2018-09-26T00:44:06.132Z,100926.77
2018-09-26T00:44:44.159Z,100930.19
2018-09-26T00:45:22.067Z,100934.48
2018-09-26T00:46:00.103Z,100932.26
2018-09-26T00:46:38.112Z,100932.21
2018-09-26T00:47:15.994Z,100933.81
2018-09-26T00:47:54.079Z,100936.42
2018-09-26T00:48:32.182Z,100936.93
2018-09-26T00:49:10.029Z,100940.94
2018-09-26T00:49:48.885Z,100945.45
2018-09-26T00:50:26.874Z,100945.95
2018-09-26T00:51:05.666Z,100946.46
2018-09-26T00:51:44.377Z,100952.91
2018-09-26T00:52:22.157Z,100955.02
2018-09-26T00:53:00.516Z,100957.12
2018-09-26T00:53:38.717Z,100959.53
2018-09-26T00:54:17.497Z,100954.91
2018-09-26T00:54:55.473Z,100957.27
2018-09-26T00:55:34.278Z,100958.83
2018-09-26T00:56:12.169Z,100959.33
2018-09-26T00:56:50.682Z,100959.30
2018-09-26T00:57:28.657Z,100959.28
2018-09-26T00:58:06.923Z,100957.27
2018-09-26T00:58:44.927Z,100959.37
2018-09-26T00:59:23.035Z,100960.38
2018-09-26T01:00:01.005Z,100960.62
2018-09-26T01:00:39.052Z,100959.52
2018-09-26T01:01:17.017Z,100964.08
2018-09-26T01:01:55.101Z,100958.66
2018-09-26T01:02:32.866Z,100961.59
2018-09-26T01:03:11.067Z,100966.66
2018-09-26T01:03:49.365Z,100964.14
2018-09-26T01:04:27.237Z,100963.03
2018-09-26T01:05:05.260Z,100962.67
2018-09-26T01:05:43.091Z,100964.52
2018-09-26T01:06:22.331Z,100963.66
2018-09-26T01:07:00.204Z,100967.38
2018-09-26T01:07:38.141Z,100965.98
2018-09-26T01:08:16.492Z,100968.59
2018-09-26T01:08:54.331Z,100965.27
2018-09-26T01:09:32.595Z,100969.80
2018-09-26T01:10:10.447Z,100967.09
2018-09-26T01:10:48.290Z,100969.80
2018-09-26T01:11:26.594Z,100968.69
2018-09-26T01:12:04.479Z,100968.44
2018-09-26T01:12:42.490Z,100972.20
2018-09-26T01:13:20.296Z,100966.48
2018-09-26T01:13:58.313Z,100965.30
2018-09-26T01:14:36.364Z,100973.42
2018-09-26T01:15:14.241Z,100967.62
2018-09-26T01:15:52.200Z,100974.04
2018-09-26T01:16:32.061Z,100970.66
2018-09-26T01:17:09.932Z,100975.22
2018-09-26T01:17:47.704Z,100971.70
2018-09-26T01:18:25.541Z,100977.62
2018-09-26T01:19:03.597Z,100974.05
2018-09-26T01:19:42.665Z,100981.08
2018-09-26T01:20:20.614Z,100977.22
2018-09-26T01:20:58.727Z,100973.95
2018-09-26T01:21:36.706Z,100976.42
2018-09-26T01:22:14.571Z,100978.27
2018-09-26T01:22:55.962Z,100979.87
2018-09-26T01:23:33.952Z,100979.25
2018-09-26T01:24:11.957Z,100977.03
2018-09-26T01:24:49.799Z,100982.71
2018-09-26T01:25:27.577Z,100980.48
2018-09-26T01:26:05.422Z,100986.41
2018-09-26T01:26:43.434Z,100981.97
2018-09-26T01:27:21.332Z,100988.13
2018-09-26T01:27:59.225Z,100981.84
2018-09-26T01:28:37.349Z,100980.91
2018-09-26T01:29:15.166Z,100983.00
2018-09-26T01:29:54.062Z,100983.49
2018-09-26T01:30:31.874Z,100980.41
2018-09-26T01:31:09.738Z,100983.61
2018-09-26T01:31:48.007Z,100988.69
2018-09-26T01:32:26.163Z,100986.16
2018-09-26T01:33:04.238Z,100987.20
2018-09-26T01:33:42.058Z,100989.67
2018-09-26T01:34:19.966Z,100986.34
2018-09-26T01:34:57.953Z,100989.30
2018-09-26T01:35:35.754Z,100988.98
2018-09-26T01:36:13.681Z,100994.59
2018-09-26T01:36:51.502Z,100992.37
2018-09-26T01:37:29.302Z,100993.59
2018-09-26T01:38:07.418Z,100991.39
2018-09-26T01:38:45.401Z,100999.47
2018-09-26T01:39:23.335Z,100990.41
2018-09-26T01:40:01.882Z,100995.22
2018-09-26T01:40:39.714Z,100997.31
2018-09-26T01:41:20.262Z,100995.08
2018-09-26T01:41:58.297Z,100991.18
2018-09-26T01:42:36.314Z,100995.57
2018-09-26T01:43:14.214Z,100994.45
2018-09-26T01:43:52.112Z,100997.94
2018-09-26T01:44:30.066Z,100994.11
2018-09-26T01:45:08.569Z,100993.23
2018-09-26T01:45:46.387Z,100990.69
2018-09-26T01:46:24.326Z,100993.02
2018-09-26T01:47:02.420Z,100994.79
2018-09-26T01:47:40.440Z,100991.20
2018-09-26T01:48:19.280Z,100993.28
2018-09-26T01:48:57.477Z,100991.92
2018-09-26T01:49:36.177Z,100991.81
2018-09-26T01:50:15.215Z,100989.02
2018-09-26T01:50:53.050Z,100988.85
2018-09-26T01:51:31.906Z,100989.50
2018-09-26T01:52:09.967Z,100983.58
2018-09-26T01:52:48.044Z,100989.50
2018-09-26T01:53:25.888Z,100982.39
2018-09-26T01:54:03.729Z,100987.83
2018-09-26T01:54:41.772Z,100988.83
2018-09-26T01:55:19.530Z,100985.79
2018-09-26T01:55:57.321Z,100988.59
2018-09-26T01:56:35.282Z,100982.63
2018-09-26T01:57:13.203Z,100992.95
2018-09-26T01:57:50.970Z,100990.19
2018-09-26T01:58:28.869Z,100988.59
2018-09-26T01:59:06.686Z,100989.70
2018-09-26T01:59:44.697Z,100988.75
2018-09-26T02:00:22.703Z,100990.43
2018-09-26T02:01:00.749Z,100988.12
2018-09-26T02:01:38.723Z,100985.08
2018-09-26T02:02:16.581Z,100984.77
2018-09-26T02:02:54.589Z,100989.64
2018-09-26T02:03:32.380Z,100988.28
2018-09-26T02:04:10.237Z,100988.16
2018-09-26T02:04:48.065Z,100990.56
2018-09-26T02:05:25.939Z,100988.33
2018-09-26T02:06:04.922Z,100991.52
2018-09-26T02:06:42.805Z,100992.73
2018-09-26T02:07:20.858Z,100996.49
2018-09-26T02:07:58.693Z,100989.61
2018-09-26T02:08:36.717Z,100994.42
2018-09-26T02:09:15.160Z,100997.14
2018-09-26T02:09:53.186Z,100998.10
2018-09-26T02:10:31.115Z,101005.53
2018-09-26T02:11:08.943Z,100997.06
2018-09-26T02:11:46.833Z,100993.30
2018-09-26T02:12:24.922Z,100996.98
2018-09-26T02:13:02.825Z,100994.90
2018-09-26T02:13:40.704Z,100995.14
2018-09-26T02:14:18.461Z,100991.30
2018-09-26T02:14:56.498Z,100995.26
2018-09-26T02:15:34.306Z,100991.66
2018-09-26T02:16:12.475Z,100994.55
2018-09-26T02:16:50.515Z,100993.11
2018-09-26T02:17:28.386Z,100990.06
2018-09-26T02:18:06.262Z,100979.02
2018-09-26T02:18:44.452Z,100987.00
2018-09-26T02:19:22.303Z,100979.08
2018-09-26T02:20:00.150Z,100982.76
2018-09-26T02:20:38.031Z,100983.95
2018-09-26T02:21:15.959Z,100978.11
2018-09-26T02:21:54.032Z,100980.83
2018-09-26T02:22:31.894Z,100985.87
2018-09-26T02:23:09.872Z,100980.67
2018-09-26T02:23:47.897Z,100977.56
2018-09-26T02:24:25.834Z,100980.53
2018-09-26T02:25:03.896Z,100982.37
2018-09-26T02:25:41.638Z,100982.20
2018-09-26T02:26:19.538Z,100980.75
2018-09-26T02:26:57.386Z,100983.33
2018-09-26T02:27:35.246Z,100988.69
2018-09-26T02:28:13.201Z,100987.00
2018-09-26T02:28:51.035Z,100987.07
2018-09-26T02:29:28.898Z,100980.39
2018-09-26T02:30:07.819Z,100985.43
2018-09-26T02:30:45.792Z,100980.69
2018-09-26T02:31:23.745Z,100982.20
2018-09-26T02:32:02.616Z,100983.24
2018-09-26T02:32:40.535Z,100979.63
2018-09-26T02:33:18.323Z,100986.03
2018-09-26T02:33:56.432Z,100981.33
2018-09-26T02:34:34.393Z,100986.59
2018-09-26T02:35:12.286Z,100985.70
2018-09-26T02:35:50.130Z,100984.97
2018-09-26T02:36:28.368Z,100979.90
2018-09-26T02:37:09.143Z,100986.06
2018-09-26T02:37:47.021Z,100986.56
2018-09-26T02:38:24.919Z,100979.98
2018-09-26T02:39:03.255Z,100981.99
2018-09-26T02:39:42.173Z,100986.70
2018-09-26T02:40:20.104Z,100985.58
2018-09-26T02:40:58.210Z,100982.19
2018-09-26T02:41:37.459Z,100982.66
2018-09-26T02:42:15.765Z,100985.86
2018-09-26T02:42:54.124Z,100982.80
2018-09-26T02:43:32.154Z,100979.55
2018-09-26T02:44:10.605Z,100983.69
2018-09-26T02:44:48.965Z,100980.53
2018-09-26T02:45:26.972Z,100986.92
2018-09-26T02:46:04.962Z,100979.69
2018-09-26T02:46:43.030Z,100979.69
2018-09-26T02:47:21.128Z,100979.83
2018-09-26T02:47:59.080Z,100978.53
2018-09-26T02:49:11.853Z,100977.41
2018-09-26T02:49:49.896Z,100969.86
2018-09-26T02:50:28.039Z,100971.69
2018-09-26T02:51:07.108Z,100970.55
2018-09-26T02:51:45.262Z,100971.26
2018-09-26T02:52:23.357Z,100968.77
2018-09-26T02:53:01.225Z,100969.47
2018-09-26T02:53:39.015Z,100967.37
2018-09-26T02:54:18.038Z,100971.12
2018-09-26T02:54:55.960Z,100972.49
2018-09-26T02:55:33.772Z,100974.55
2018-09-26T02:56:11.841Z,100974.55
2018-09-26T02:56:50.732Z,100968.90
2018-09-26T02:57:28.596Z,100972.99
2018-09-26T02:58:06.515Z,100973.45
2018-09-26T02:58:44.475Z,100972.09
2018-09-26T02:59:22.268Z,100968.70
2018-09-26T03:00:00.137Z,100965.97
2018-09-26T03:00:38.337Z,100963.00
2018-09-26T03:01:16.409Z,100966.77
2018-09-26T03:01:55.354Z,100967.33
2018-09-26T03:02:33.350Z,100963.91
2018-09-26T03:03:11.350Z,100966.60
2018-09-26T03:03:49.427Z,100969.09
2018-09-26T03:04:27.335Z,100972.06
2018-09-26T03:05:06.205Z,100971.83
2018-09-26T03:05:44.416Z,100970.03
2018-09-26T03:06:22.252Z,100968.66
2018-09-26T03:07:00.305Z,100966.84
2018-09-26T03:07:38.213Z,100974.12
2018-09-26T03:08:16.381Z,100966.37
2018-09-26T03:08:55.473Z,100970.00
2018-09-26T03:09:33.346Z,100972.26
2018-09-26T03:10:11.127Z,100968.86
2018-09-26T03:10:49.327Z,100971.12
2018-09-26T03:11:27.294Z,100967.50
2018-09-26T03:12:05.261Z,100964.73
2018-09-26T03:12:43.101Z,100967.60
2018-09-26T03:13:21.022Z,100964.50
2018-09-26T03:13:58.869Z,100966.56
2018-09-26T03:14:36.969Z,100969.43
2018-09-26T03:15:14.928Z,100969.77
2018-09-26T03:15:52.901Z,100966.60
2018-09-26T03:16:30.800Z,100957.81
2018-09-26T03:17:08.623Z,100957.81
2018-09-26T03:17:46.520Z,100958.84
2018-09-26T03:18:25.306Z,100956.95
2018-09-26T03:19:03.170Z,100959.22
2018-09-26T03:19:40.997Z,100958.08
2018-09-26T03:20:18.902Z,100952.16
2018-09-26T03:20:56.729Z,100952.63
2018-09-26T03:21:34.561Z,100956.95
2018-09-26T03:22:12.521Z,100950.62
2018-09-26T03:22:51.535Z,100953.09
2018-09-26T03:23:29.836Z,100954.06
2018-09-26T03:24:07.852Z,100953.39
2018-09-26T03:24:45.652Z,100951.92
2018-09-26T03:25:23.676Z,100954.98
2018-09-26T03:26:01.579Z,100955.92
2018-09-26T03:26:39.497Z,100949.80
2018-09-26T03:27:17.369Z,100950.27
2018-09-26T03:27:55.359Z,100955.52
2018-09-26T03:28:33.249Z,100945.33
2018-09-26T03:29:11.402Z,100945.79
2018-09-26T03:29:50.738Z,100949.45
2018-09-26T03:30:28.590Z,100940.39
2018-09-26T03:31:06.430Z,100940.08
2018-09-26T03:31:44.343Z,100942.23
2018-09-26T03:32:22.283Z,100944.79
2018-09-26T03:33:00.134Z,100940.25
2018-09-26T03:33:38.127Z,100936.39
2018-09-26T03:34:16.903Z,100935.95
2018-09-26T03:34:54.987Z,100935.27
2018-09-26T03:35:32.857Z,100939.16
2018-09-26T03:36:10.680Z,100938.06
2018-09-26T03:36:48.675Z,100933.75
2018-09-26T03:37:26.569Z,100934.22
2018-09-26T03:38:04.600Z,100935.39
2018-09-26T03:38:43.578Z,100933.56
2018-09-26T03:39:21.573Z,100934.25
2018-09-26T03:39:59.498Z,100929.13
2018-09-26T03:40:37.331Z,100926.51
2018-09-26T03:41:15.147Z,100926.97
2018-09-26T03:41:53.261Z,100928.80
2018-09-26T03:42:32.258Z,100922.53
2018-09-26T03:43:10.511Z,100927.42
2018-09-26T03:43:48.376Z,100918.44
2018-09-26T03:44:26.263Z,100925.83
2018-09-26T03:45:04.204Z,100926.73
2018-09-26T03:45:42.205Z,100923.10
2018-09-26T03:46:20.013Z,100919.53
2018-09-26T03:46:57.961Z,100923.28
2018-09-26T03:47:36.995Z,100913.72
2018-09-26T03:48:15.002Z,100917.58
2018-09-26T03:48:53.105Z,100917.44
2018-09-26T03:49:31.218Z,100911.17
2018-09-26T03:50:09.615Z,100911.17
2018-09-26T03:50:47.672Z,100911.97
2018-09-26T03:51:25.584Z,100912.54
2018-09-26T03:52:04.485Z,100911.84
2018-09-26T03:52:43.393Z,100908.55
2018-09-26T03:53:22.420Z,100910.92
2018-09-26T03:54:01.405Z,100907.73
2018-09-26T03:54:39.154Z,100902.95
2018-09-26T03:55:20.838Z,100903.18
2018-09-26T03:55:59.496Z,100897.16
2018-09-26T03:56:37.370Z,100906.38
2018-09-26T03:57:15.261Z,100902.73
2018-09-26T03:57:56.536Z,100894.09
2018-09-26T03:58:34.331Z,100897.39
2018-09-26T03:59:12.455Z,100902.29
2018-09-26T03:59:50.261Z,100902.50
2018-09-26T04:00:30.007Z,100900.11
2018-09-26T04:01:08.105Z,100900.22
2018-09-26T04:01:45.957Z,100897.94
2018-09-26T04:02:23.840Z,100898.37
2018-09-26T04:03:01.627Z,100904.14
2018-09-26T04:03:40.316Z,100897.24
2018-09-26T04:04:19.167Z,100894.07
2018-09-26T04:04:58.010Z,100893.84
2018-09-26T04:05:35.823Z,100894.98
2018-09-26T04:06:13.689Z,100895.68
2018-09-26T04:06:51.728Z,100889.20
2018-09-26T04:07:29.554Z,100898.23
2018-09-26T04:08:07.369Z,100894.03
2018-09-26T04:08:45.385Z,100896.08
2018-09-26T04:09:23.201Z,100891.42
2018-09-26T04:10:01.377Z,100891.08
2018-09-26T04:10:39.307Z,100887.13
2018-09-26T04:11:17.441Z,100884.86
2018-09-26T04:11:55.298Z,100891.00
2018-09-26T04:12:33.989Z,100890.78
2018-09-26T04:13:11.922Z,100895.56
2018-09-26T04:13:49.862Z,100892.83
2018-09-26T04:14:27.728Z,100889.45
2018-09-26T04:15:05.703Z,100889.67
2018-09-26T04:15:52.094Z,100890.33
2018-09-26T04:16:29.984Z,100889.41
2018-09-26T04:17:07.926Z,100890.33
2018-09-26T04:17:46.014Z,100891.92
2018-09-26T04:18:25.389Z,100893.66
2018-09-26T04:19:03.514Z,100889.56
2018-09-26T04:19:41.537Z,100886.95
2018-09-26T04:20:19.367Z,100883.53
2018-09-26T04:20:57.859Z,100881.94
2018-09-26T04:21:35.723Z,100888.31
2018-09-26T04:22:13.653Z,100887.41
2018-09-26T04:22:52.393Z,100884.33
2018-09-26T04:23:30.218Z,100889.23
2018-09-26T04:24:08.239Z,100882.62
2018-09-26T04:24:46.102Z,100880.34
2018-09-26T04:25:24.101Z,100887.75
2018-09-26T04:26:01.906Z,100884.44
2018-09-26T04:26:40.143Z,100886.04
2018-09-26T04:27:18.023Z,100878.55
2018-09-26T04:27:56.003Z,100883.33
2018-09-26T04:28:34.041Z,100880.83
2018-09-26T04:29:11.935Z,100884.24
2018-09-26T04:29:49.850Z,100879.72
2018-09-26T04:30:27.918Z,100884.05
2018-09-26T04:31:05.783Z,100879.48
2018-09-26T04:31:43.604Z,100878.34
2018-09-26T04:32:21.631Z,100883.69
2018-09-26T04:32:59.612Z,100880.64
2018-09-26T04:33:37.653Z,100880.30
2018-09-26T04:34:17.602Z,100874.48
2018-09-26T04:34:55.764Z,100876.28
2018-09-26T04:35:33.685Z,100871.96
2018-09-26T04:36:11.511Z,100872.88
2018-09-26T04:36:49.454Z,100872.42
2018-09-26T04:37:27.626Z,100869.69
2018-09-26T04:38:05.488Z,100872.64
2018-09-26T04:38:43.563Z,100867.63
2018-09-26T04:39:21.491Z,100873.47
2018-09-26T04:39:59.436Z,100873.23
2018-09-26T04:40:38.117Z,100871.08
2018-09-26T04:41:16.038Z,100877.11
2018-09-26T04:41:53.992Z,100866.62
2018-09-26T04:42:31.837Z,100872.42
2018-09-26T04:43:09.896Z,100871.16
2018-09-26T04:43:48.119Z,100868.19
2018-09-26T04:44:25.977Z,100868.77
2018-09-26T04:45:03.822Z,100867.05
2018-09-26T04:45:41.740Z,100867.05
2018-09-26T04:46:19.653Z,100862.39
2018-09-26T04:46:57.474Z,100866.47
2018-09-26T04:47:35.468Z,100862.56
2018-09-26T04:48:13.284Z,100861.75
2018-09-26T04:48:51.139Z,100862.31
2018-09-26T04:49:29.004Z,100863.21
2018-09-26T04:50:08.336Z,100863.66
2018-09-26T04:50:46.237Z,100861.14
2018-09-26T04:51:24.093Z,100857.70
2018-09-26T04:52:02.285Z,100860.92
2018-09-26T04:52:40.375Z,100862.29
2018-09-26T04:53:18.404Z,100864.10
2018-09-26T04:53:56.222Z,100858.69
2018-09-26T04:54:34.208Z,100860.30
2018-09-26T04:55:12.088Z,100857.36
2018-09-26T04:55:50.004Z,100863.08
2018-09-26T04:56:29.888Z,100860.78
2018-09-26T04:57:07.679Z,100857.27
2018-09-26T04:57:45.568Z,100854.41
2018-09-26T04:58:23.594Z,100861.02
2018-09-26T04:59:01.684Z,100860.78
2018-09-26T04:59:39.554Z,100856.93
2018-09-26T05:00:17.523Z,100856.93
2018-09-26T05:00:55.336Z,100854.65
2018-09-26T05:01:35.049Z,100855.31
2018-09-26T05:02:12.836Z,100853.61
2018-09-26T05:02:50.874Z,100851.77
2018-09-26T05:03:28.710Z,100851.56
2018-09-26T05:04:06.748Z,100853.03
2018-09-26T05:04:44.591Z,100846.42
2018-09-26T05:05:22.499Z,100845.03
2018-09-26T05:06:01.287Z,100850.03
2018-09-26T05:06:39.355Z,100835.42
2018-09-26T05:07:18.408Z,100836.80
2018-09-26T05:07:56.205Z,100832.34
2018-09-26T05:08:34.336Z,100832.21
2018-09-26T05:09:13.757Z,100836.41
2018-09-26T05:09:51.843Z,100835.94
2018-09-26T05:10:29.665Z,100828.74
2018-09-26T05:11:07.550Z,100829.22
2018-09-26T05:11:45.495Z,100825.78
2018-09-26T05:12:23.356Z,100820.53
2018-09-26T05:13:01.266Z,100820.43
2018-09-26T05:13:39.373Z,100819.86
2018-09-26T05:14:17.178Z,100821.17
2018-09-26T05:14:55.167Z,100825.10
2018-09-26T05:15:32.960Z,100826.14
2018-09-26T05:16:10.809Z,100821.24
2018-09-26T05:16:48.679Z,100820.45
2018-09-26T05:17:26.571Z,100818.65
2018-09-26T05:18:04.372Z,100809.55
2018-09-26T05:18:43.289Z,100810.33
2018-09-26T05:19:21.118Z,100811.34
2018-09-26T05:19:59.242Z,100810.21
2018-09-26T05:20:37.362Z,100807.48
2018-09-26T05:21:15.488Z,100816.33
2018-09-26T05:21:53.354Z,100810.53
2018-09-26T05:22:31.290Z,100808.83
2018-09-26T05:23:09.242Z,100805.19
2018-09-26T05:23:47.346Z,100805.72
2018-09-26T05:24:25.375Z,100803.97
2018-09-26T05:25:03.498Z,100808.59
2018-09-26T05:25:42.374Z,100802.33
2018-09-26T05:26:20.484Z,100797.73
2018-09-26T05:26:58.354Z,100805.91
2018-09-26T05:27:36.250Z,100801.31
2018-09-26T05:28:14.029Z,100799.25
2018-09-26T05:28:51.828Z,100792.86
2018-09-26T05:29:29.760Z,100796.77
2018-09-26T05:30:07.739Z,100792.77
2018-09-26T05:30:45.679Z,100796.31
2018-09-26T05:31:23.561Z,100796.02
2018-09-26T05:32:01.513Z,100796.50
2018-09-26T05:32:40.762Z,100789.55
2018-09-26T05:33:18.576Z,100795.86
2018-09-26T05:33:56.506Z,100791.94
2018-09-26T05:34:34.309Z,100793.90
2018-09-26T05:35:12.395Z,100794.75
2018-09-26T05:35:50.478Z,100793.81
2018-09-26T05:36:28.590Z,100795.58
2018-09-26T05:37:06.558Z,100789.19
2018-09-26T05:37:44.384Z,100788.91
2018-09-26T05:38:22.431Z,100783.23
2018-09-26T05:39:00.293Z,100787.31
2018-09-26T05:39:38.223Z,100785.72
2018-09-26T05:40:17.268Z,100779.80
2018-09-26T05:40:55.330Z,100779.22
2018-09-26T05:41:39.014Z,100780.39
2018-09-26T05:42:17.235Z,100774.02
2018-09-26T05:42:55.193Z,100779.87
2018-09-26T05:43:33.178Z,100774.14
2018-09-26T05:44:12.072Z,100778.73
2018-09-26T05:44:50.184Z,100772.87
2018-09-26T05:45:28.076Z,100770.62
2018-09-26T05:46:06.127Z,100773.05
2018-09-26T05:46:44.321Z,100770.41
2018-09-26T05:47:22.323Z,100766.19
2018-09-26T05:48:00.167Z,100771.45
2018-09-26T05:48:38.478Z,100763.45
2018-09-26T05:49:16.404Z,100765.14
2018-09-26T05:49:54.278Z,100763.16
2018-09-26T05:50:32.147Z,100767.64
2018-09-26T05:51:10.242Z,100765.80
2018-09-26T05:51:48.009Z,100767.15
2018-09-26T05:52:25.810Z,100762.97
2018-09-26T05:53:03.790Z,100768.78
2018-09-26T05:53:41.712Z,100773.34
2018-09-26T05:54:19.709Z,100768.16
2018-09-26T05:54:57.731Z,100770.39
2018-09-26T05:55:35.858Z,100767.88
2018-09-26T05:56:14.541Z,100772.28
2018-09-26T05:56:52.813Z,100765.16
2018-09-26T05:57:30.682Z,100761.48
2018-09-26T05:58:08.557Z,100761.84
2018-09-26T05:58:47.355Z,100755.61
2018-09-26T05:59:25.281Z,100751.98
2018-09-26T06:00:04.165Z,100752.78
2018-09-26T06:00:43.272Z,100751.19
2018-09-26T06:01:21.066Z,100751.50
2018-09-26T06:01:58.906Z,100748.30
2018-09-26T06:02:37.509Z,100743.98
2018-09-26T06:03:15.664Z,100743.98
2018-09-26T06:03:53.973Z,100743.98
2018-09-26T06:04:31.828Z,100741.91
2018-09-26T06:05:09.680Z,100737.59
2018-09-26T06:05:47.608Z,100734.88
2018-09-26T06:06:25.500Z,100731.68
2018-09-26T06:07:03.376Z,100741.27
2018-09-26T06:07:41.179Z,100737.43
2018-09-26T06:08:19.130Z,100737.43
2018-09-26T06:08:56.944Z,100733.91
2018-09-26T06:09:34.833Z,100731.20
2018-09-26T06:10:12.846Z,100734.40
2018-09-26T06:10:50.778Z,100728.65
2018-09-26T06:11:28.595Z,100725.61
2018-09-26T06:12:12.358Z,100731.08
2018-09-26T06:12:50.203Z,100720.46
2018-09-26T06:13:28.138Z,100725.73
2018-09-26T06:14:06.912Z,100724.92
2018-09-26T06:14:44.917Z,100716.78
2018-09-26T06:15:23.015Z,100719.25
2018-09-26T06:16:01.814Z,100715.98
2018-09-26T06:16:39.739Z,100715.19
2018-09-26T06:17:17.709Z,100715.19
2018-09-26T06:17:56.398Z,100711.82
2018-09-26T06:18:34.303Z,100713.88
2018-09-26T06:19:12.687Z,100711.32
2018-09-26T06:19:50.541Z,100705.25
2018-09-26T06:20:28.360Z,100710.17
2018-09-26T06:21:06.355Z,100711.47
2018-09-26T06:21:44.233Z,100709.05
2018-09-26T06:22:22.146Z,100709.53
2018-09-26T06:23:00.014Z,100704.91
2018-09-26T06:23:37.866Z,100703.52
2018-09-26T06:24:16.707Z,100699.69
2018-09-26T06:24:54.483Z,100699.33
2018-09-26T06:25:33.357Z,100701.16
2018-09-26T06:26:11.329Z,100694.27
2018-09-26T06:26:49.123Z,100694.89
2018-09-26T06:27:27.043Z,100693.91
2018-09-26T06:28:05.697Z,100697.23
2018-09-26T06:28:43.574Z,100689.70
2018-09-26T06:29:21.512Z,100688.19
2018-09-26T06:29:59.316Z,100693.92
2018-09-26T06:30:37.174Z,100691.02
2018-09-26T06:31:15.001Z,100680.19
2018-09-26T06:31:52.829Z,100683.76
2018-09-26T06:32:30.669Z,100686.22
2018-09-26T06:33:08.646Z,100683.58
2018-09-26T06:33:46.498Z,100686.59
2018-09-26T06:34:25.669Z,100686.66
2018-09-26T06:35:03.629Z,100675.91
2018-09-26T06:35:41.605Z,100676.22
2018-09-26T06:36:19.440Z,100673.02
2018-09-26T06:36:57.254Z,100676.83
2018-09-26T06:37:35.138Z,100677.63
2018-09-26T06:38:13.013Z,100679.54
2018-09-26T06:38:50.882Z,100675.78
2018-09-26T06:39:28.813Z,100673.63
2018-09-26T06:40:08.272Z,100670.43
2018-09-26T06:40:46.106Z,100671.23
2018-09-26T06:41:24.097Z,100667.47
2018-09-26T06:42:02.077Z,100670.98
2018-09-26T06:42:39.872Z,100673.14
2018-09-26T06:43:18.653Z,100670.43
2018-09-26T06:43:56.654Z,100668.03
2018-09-26T06:44:34.565Z,100665.32
2018-09-26T06:45:12.619Z,100662.92
2018-09-26T06:45:50.717Z,100659.11
2018-09-26T06:46:28.654Z,100660.20
2018-09-26T06:47:06.469Z,100657.75
2018-09-26T06:47:44.301Z,100656.89
2018-09-26T06:48:22.389Z,100657.26
2018-09-26T06:49:00.514Z,100653.59
2018-09-26T06:49:38.505Z,100655.06
2018-09-26T06:50:16.981Z,100653.28
2018-09-26T06:50:54.929Z,100652.59
2018-09-26T06:51:32.763Z,100652.66
2018-09-26T06:52:10.639Z,100648.16
2018-09-26T06:52:48.583Z,100648.45
2018-09-26T06:53:26.413Z,100650.67
2018-09-26T06:54:05.146Z,100646.96
2018-09-26T06:54:43.089Z,100645.81
2018-09-26T06:55:20.980Z,100647.16
2018-09-26T06:55:58.783Z,100647.54
2018-09-26T06:56:36.588Z,100643.94
2018-09-26T06:57:15.826Z,100647.95
2018-09-26T06:57:53.721Z,100641.14
2018-09-26T06:58:31.488Z,100643.31
2018-09-26T06:59:09.733Z,100638.52
2018-09-26T06:59:47.833Z,100642.19
2018-09-26T07:00:25.810Z,100637.72
2018-09-26T07:01:03.981Z,100641.95
2018-09-26T07:01:41.965Z,100636.92
2018-09-26T07:02:19.946Z,100634.48
2018-09-26T07:02:58.218Z,100639.34
2018-09-26T07:03:36.217Z,100638.81
2018-09-26T07:04:14.074Z,100632.04
2018-09-26T07:04:52.194Z,100632.35
2018-09-26T07:05:30.101Z,100633.72
2018-09-26T07:06:08.071Z,100636.66
2018-09-26T07:06:45.873Z,100631.28
2018-09-26T07:07:23.839Z,100630.41
2018-09-26T07:08:01.692Z,100630.97
2018-09-26T07:08:39.454Z,100631.83
2018-09-26T07:09:17.613Z,100624.45
2018-09-26T07:09:55.534Z,100623.15
2018-09-26T07:10:33.530Z,100619.45
2018-09-26T07:11:11.395Z,100625.30
2018-09-26T07:11:49.474Z,100620.09
2018-09-26T07:12:27.673Z,100620.70
2018-09-26T07:13:05.487Z,100611.55
2018-09-26T07:13:43.370Z,100613.55
2018-09-26T07:14:21.321Z,100612.00
2018-09-26T07:14:59.151Z,100609.45
2018-09-26T07:15:43.954Z,100605.41
2018-09-26T07:16:21.931Z,100614.97
2018-09-26T07:16:59.816Z,100603.62
2018-09-26T07:17:38.100Z,100599.80
2018-09-26T07:18:16.560Z,100603.16